Time;durP1;ratioP1;P1;durP2;ratioP2;P2;SDS_P1;SDS_P2;PMS_P1;PMS_P2;Temp;Humidity;BMP_temperature;BMP_pressure;BME280_temperature;BME280_humidity;BME280_pressure;Samples;Min_cycle;Max_cycle;Signal;HPM_P1;HPM_P2
2023/09/24 00:00:26;;;;;;;2.25;1.60;;;;;;;21.15;nan;61815.22;5032030;28;20191;-63
2023/09/24 00:02:51;;;;;;;1.65;1.40;;;;;;;21.32;nan;61753.38;5033062;28;20199;-62
2023/09/24 00:05:17;;;;;;;1.98;1.67;;;;;;;20.98;nan;61669.16;5032924;28;20179;-62
2023/09/24 00:07:42;;;;;;;1.58;1.30;;;;;;;21.16;nan;61746.19;5039834;28;20663;-62
2023/09/24 00:10:08;;;;;;;2.15;1.85;;;;;;;21.06;nan;61706.81;5033100;28;20183;-63
2023/09/24 00:12:33;;;;;;;1.70;1.40;;;;;;;21.05;nan;61814.78;5032089;28;20186;-64
2023/09/24 00:14:59;;;;;;;2.95;1.60;;;;;;;21.02;nan;61719.91;5032056;28;20650;-63
2023/09/24 00:17:24;;;;;;;2.13;1.80;;;;;;;20.97;nan;61730.38;5036071;28;20189;-61
2023/09/24 00:19:50;;;;;;;3.33;1.77;;;;;;;21.17;nan;61757.72;5044740;28;20183;-63
2023/09/24 00:22:16;;;;;;;2.25;1.45;;;;;;;21.23;nan;61754.13;5032094;28;20207;-63
2023/09/24 00:24:42;;;;;;;3.58;2.03;;;;;;;21.00;nan;61811.13;5032281;28;20194;-65
2023/09/24 00:27:09;;;;;;;2.67;1.75;;;;;;;21.14;nan;61700.31;5032312;28;20179;-64
2023/09/24 00:29:34;;;;;;;2.55;1.42;;;;;;;21.34;nan;61828.44;5032447;28;20194;-63
2023/09/24 00:32:00;;;;;;;2.35;1.40;;;;;;;21.51;nan;61777.53;5039291;28;20186;-63
2023/09/24 00:34:25;;;;;;;2.03;1.50;;;;;;;21.42;nan;61715.31;5031220;28;20183;-65
2023/09/24 00:36:51;;;;;;;1.88;1.30;;;;;;;21.54;nan;61758.13;5031919;28;20185;-65
2023/09/24 00:39:17;;;;;;;1.42;1.23;;;;;;;21.44;nan;61767.00;5031394;28;20186;-62
2023/09/24 00:41:52;;;;;;;6.28;1.50;;;;;;;21.54;nan;61830.34;5031904;28;20202;-62
2023/09/24 00:44:18;;;;;;;2.28;1.60;;;;;;;21.32;nan;61732.56;5030014;28;20550;-64
2023/09/24 00:46:44;;;;;;;1.38;1.27;;;;;;;21.49;nan;61778.44;5031938;28;20198;-62
2023/09/24 00:49:15;;;;;;;1.90;1.60;;;;;;;21.30;nan;61706.94;5039788;28;20208;-62
2023/09/24 00:51:41;;;;;;;1.85;1.27;;;;;;;21.51;nan;61767.13;5030752;28;20180;-62
2023/09/24 00:54:07;;;;;;;1.25;1.13;;;;;;;21.52;nan;61768.25;5030761;28;20184;-63
2023/09/24 00:56:34;;;;;;;1.92;1.52;;;;;;;21.60;nan;61749.31;5031454;28;20217;-63
2023/09/24 00:59:06;;;;;;;2.95;1.67;;;;;;;21.36;nan;61856.69;5038955;28;20202;-62
2023/09/24 01:01:31;;;;;;;2.45;1.65;;;;;;;21.34;nan;61758.81;5035096;28;20195;-65
2023/09/24 01:03:57;;;;;;;2.08;1.48;;;;;;;21.08;nan;61809.84;5043938;28;20185;-64
2023/09/24 01:06:23;;;;;;;1.73;1.40;;;;;;;21.06;nan;61854.91;5031287;28;20310;-66
2023/09/24 01:08:49;;;;;;;1.95;1.70;;;;;;;20.94;nan;61641.25;5031326;28;20634;-65
2023/09/24 01:11:14;;;;;;;1.30;1.20;;;;;;;20.89;nan;61723.91;5031477;28;20186;-63
2023/09/24 01:13:43;;;;;;;3.72;1.65;;;;;;;20.86;nan;61660.19;5037153;28;20642;-63
2023/09/24 01:16:10;;;;;;;1.50;1.33;;;;;;;21.01;nan;61675.16;5040928;28;20182;-64
2023/09/24 01:18:37;;;;;;;1.50;1.40;;;;;;;20.93;nan;61675.91;5031540;28;20241;-65
2023/09/24 01:21:11;;;;;;;4.95;2.25;;;;;;;20.88;nan;61948.16;5030905;28;20206;-64
2023/09/24 01:23:38;;;;;;;2.75;1.85;;;;;;;21.00;nan;61689.03;5029824;28;20664;-63
2023/09/24 01:26:03;;;;;;;3.67;1.42;;;;;;;21.05;nan;61845.97;5030927;28;20224;-65
2023/09/24 01:28:30;;;;;;;1.65;1.23;;;;;;;21.09;nan;61784.97;5031112;28;20175;-65
2023/09/24 01:30:56;;;;;;;2.22;1.73;;;;;;;20.89;nan;61627.22;5027300;28;20542;-62
2023/09/24 01:36:43;;;;;;;2.63;1.92;;;;;;;21.04;nan;61673.34;5025855;28;20203;-65
2023/09/24 01:39:08;;;;;;;1.85;1.48;;;;;;;21.00;nan;61658.44;5030884;28;20267;-65
2023/09/24 01:41:33;;;;;;;1.75;1.52;;;;;;;20.83;nan;61659.97;5030107;28;20286;-64
2023/09/24 01:43:59;;;;;;;1.73;1.58;;;;;;;20.99;nan;61670.28;5030339;28;20179;-66
2023/09/24 01:46:25;;;;;;;1.38;1.20;;;;;;;20.80;nan;61646.19;5023721;28;20214;-66
2023/09/24 01:48:53;;;;;;;1.50;1.40;;;;;;;20.94;nan;61638.66;5031255;28;20652;-65
2023/09/24 01:51:20;;;;;;;4.47;1.70;;;;;;;20.94;nan;61675.03;5033893;28;20265;-64
2023/09/24 01:53:45;;;;;;;2.05;1.60;;;;;;;20.77;nan;61733.09;5046167;28;20179;-62
2023/09/24 01:56:12;;;;;;;1.83;1.35;;;;;;;20.95;nan;61678.75;5031473;28;20215;-62
2023/09/24 01:58:38;;;;;;;2.15;1.88;;;;;;;20.88;nan;61823.50;5042220;28;20183;-63
2023/09/24 02:01:04;;;;;;;3.10;1.60;;;;;;;20.99;nan;61664.53;5051206;28;20642;-62
2023/09/24 02:03:29;;;;;;;1.83;1.55;;;;;;;20.92;nan;61651.97;5051218;28;20159;-63
2023/09/24 02:05:55;;;;;;;1.85;1.48;;;;;;;20.66;nan;61604.91;5051902;28;20181;-65
2023/09/24 02:08:21;;;;;;;2.10;1.58;;;;;;;20.63;nan;61611.91;5051486;28;20249;-66
2023/09/24 02:10:47;;;;;;;5.50;1.90;;;;;;;20.60;nan;61659.84;5051227;28;20197;-65
2023/09/24 02:13:12;;;;;;;3.33;1.92;;;;;;;20.57;nan;61573.97;5051835;28;20257;-63
2023/09/24 02:15:39;;;;;;;2.60;1.75;;;;;;;20.73;nan;61649.19;5051185;28;20250;-61
2023/09/24 02:18:05;;;;;;;1.80;1.58;;;;;;;20.60;nan;61597.53;5051364;28;20174;-64
2023/09/24 02:22:58;;;;;;;1.67;1.50;;;;;;;20.79;nan;61632.06;5051370;28;20704;-65
2023/09/24 02:25:31;;;;;;;2.65;1.52;;;;;;;20.59;nan;61700.25;5051522;28;20159;-65
2023/09/24 02:27:58;;;;;;;3.35;1.67;;;;;;;20.64;nan;61807.19;5051580;28;20621;-65
2023/09/24 02:30:27;;;;;;;1.92;1.45;;;;;;;20.54;nan;61611.50;5051195;28;20171;-63
2023/09/24 02:32:52;;;;;;;2.53;1.70;;;;;;;20.76;nan;61646.28;5050860;28;20175;-63
2023/09/24 02:35:17;;;;;;;1.60;1.50;;;;;;;20.65;nan;61670.72;5051206;28;20548;-62
2023/09/24 02:37:47;;;;;;;1.60;1.40;;;;;;;;;;5051229;28;20190;-62
2023/09/24 02:40:26;;;;;;;2.58;1.55;;;;;;;20.69;nan;61605.16;5051005;28;20171;-65
2023/09/24 02:42:59;;;;;;;2.08;1.85;;;;;;;20.48;nan;61529.47;5051089;28;20256;-65
2023/09/24 02:45:26;;;;;;;4.93;1.88;;;;;;;20.53;nan;61548.66;5051344;28;20202;-63
2023/09/24 02:47:52;;;;;;;2.40;1.38;;;;;;;20.67;nan;61600.84;5051848;28;20252;-63
2023/09/24 02:50:29;;;;;;;1.60;1.30;;;;;;;20.44;nan;61729.97;5051632;28;20598;-64
2023/09/24 02:53:03;;;;;;;2.70;1.30;;;;;;;20.37;nan;61672.72;5051280;28;20173;-62
2023/09/24 02:55:30;;;;;;;2.22;1.58;;;;;;;20.43;nan;61628.19;5050666;28;20196;-65
2023/09/24 02:57:55;;;;;;;2.33;1.40;;;;;;;20.37;nan;61507.19;5051070;28;20178;-63
2023/09/24 03:02:53;;;;;;;1.67;1.30;;;;;;;20.38;nan;61547.25;5044376;28;20672;-62
2023/09/24 03:05:24;;;;;;;1.77;1.55;;;;;;;20.37;nan;61504.03;5033047;28;20710;-62
2023/09/24 03:07:50;;;;;;;1.98;1.83;;;;;;;20.27;nan;61595.03;5029961;28;20175;-62
2023/09/24 03:10:16;;;;;;;1.73;1.30;;;;;;;20.23;nan;61574.94;5029813;28;20595;-65
2023/09/24 03:12:42;;;;;;;3.35;2.38;;;;;;;20.14;nan;61613.47;5030300;28;20183;-65
2023/09/24 03:15:10;;;;;;;1.77;1.33;;;;;;;20.10;nan;61463.69;5030372;28;20190;-65
2023/09/24 03:17:36;;;;;;;1.40;1.30;;;;;;;20.05;nan;61569.56;5048469;28;20182;-63
2023/09/24 03:20:20;;;;;;;1.88;1.60;;;;;;;18.97;nan;61426.28;5030353;28;20179;-65
2023/09/24 03:22:48;;;;;;;1.67;1.40;;;;;;;20.13;nan;61635.69;5025988;28;20234;-66
2023/09/24 03:25:25;;;;;;;2.38;1.70;;;;;;;20.05;nan;61489.16;5041971;28;20179;-64
2023/09/24 03:27:53;;;;;;;3.40;1.98;;;;;;;20.05;nan;61411.91;5040970;28;20559;-64
2023/09/24 03:30:20;;;;;;;1.60;1.40;;;;;;;20.31;nan;61503.00;5033236;28;20205;-63
2023/09/24 03:32:47;;;;;;;1.73;1.55;;;;;;;19.68;nan;61499.72;5032637;28;20187;-64
2023/09/24 03:35:14;;;;;;;3.42;1.50;;;;;;;17.31;nan;62797.78;5032312;28;20230;-64
2023/09/24 03:37:43;;;;;;;2.92;1.75;;;;;;;20.20;nan;61732.41;5032388;28;20190;-62
2023/09/24 03:40:12;;;;;;;1.73;1.33;;;;;;;20.14;nan;61559.00;5033327;28;20677;-66
2023/09/24 03:42:38;;;;;;;2.72;1.92;;;;;;;20.07;nan;61442.69;5033160;28;20578;-63
2023/09/24 03:45:14;;;;;;;1.80;1.38;;;;;;;20.02;nan;61428.72;5031931;28;20186;-64
2023/09/24 03:47:40;;;;;;;1.60;1.50;;;;;;;20.03;nan;61547.09;5033542;28;20179;-66
2023/09/24 03:50:13;;;;;;;3.08;1.70;;;;;;;19.96;nan;61399.16;5032628;28;20190;-62
2023/09/24 03:52:40;;;;;;;2.33;1.70;;;;;;;19.97;nan;61548.09;5032749;28;20310;-65
2023/09/24 03:55:05;;;;;;;2.45;1.70;;;;;;;19.97;nan;61519.56;5032769;28;20724;-62
2023/09/24 03:57:31;;;;;;;1.30;1.20;;;;;;;20.12;nan;61443.16;5033417;28;20223;-62
2023/09/24 03:59:57;;;;;;;1.63;1.30;;;;;;;19.95;nan;61392.81;5032878;28;20183;-66
2023/09/24 04:02:24;;;;;;;2.13;1.33;;;;;;;20.14;nan;61409.09;5049753;28;20290;-63
2023/09/24 04:04:50;;;;;;;2.03;1.35;;;;;;;20.09;nan;61436.59;5033633;28;20179;-62
2023/09/24 04:07:20;;;;;;;3.58;1.83;;;;;;;20.16;nan;61458.03;5040448;28;20683;-64
2023/09/24 04:09:46;;;;;;;2.20;1.88;;;;;;;20.13;nan;61485.78;5032077;28;20187;-64
2023/09/24 04:12:13;;;;;;;2.03;1.40;;;;;;;19.98;nan;61527.91;5035378;28;20262;-62
2023/09/24 04:14:39;;;;;;;1.88;1.38;;;;;;;20.02;nan;61556.34;5034999;28;20222;-66
2023/09/24 04:17:06;;;;;;;1.50;1.40;;;;;;;20.11;nan;61429.06;5037020;28;20183;-62
2023/09/24 04:19:33;;;;;;;2.72;1.58;;;;;;;20.00;nan;61423.84;5031782;28;20176;-64
2023/09/24 04:21:59;;;;;;;2.58;1.58;;;;;;;20.18;nan;61481.06;5038222;28;20206;-64
2023/09/24 04:24:25;;;;;;;2.20;2.00;;;;;;;20.18;nan;61739.94;5042456;28;20540;-63
2023/09/24 04:26:54;;;;;;;2.65;1.65;;;;;;;20.18;nan;61535.53;5023471;28;20608;-65
2023/09/24 04:29:20;;;;;;;1.80;1.58;;;;;;;20.18;nan;61485.69;5032110;28;20190;-64
2023/09/24 04:31:45;;;;;;;2.85;2.00;;;;;;;20.26;nan;61588.69;5032554;28;20263;-62
2023/09/24 04:34:12;;;;;;;2.15;1.67;;;;;;;20.13;nan;61431.31;5047692;28;20232;-63
2023/09/24 04:36:42;;;;;;;1.95;1.65;;;;;;;20.25;nan;61581.81;5035182;28;21164;-63
2023/09/24 04:39:11;;;;;;;2.22;1.80;;;;;;;20.36;nan;61508.09;5038984;28;20486;-62
2023/09/24 04:41:40;;;;;;;2.28;1.48;;;;;;;20.38;nan;61482.38;5043354;28;20309;-64
2023/09/24 04:44:07;;;;;;;1.58;1.20;;;;;;;20.61;nan;61562.34;5033056;28;20168;-65
2023/09/24 04:46:32;;;;;;;4.05;1.50;;;;;;;20.69;nan;61574.00;5032065;28;20187;-64
2023/09/24 04:48:58;;;;;;;2.33;1.60;;;;;;;20.60;nan;61522.84;5035904;28;20784;-65
2023/09/24 04:51:23;;;;;;;4.97;2.17;;;;;;;20.95;nan;61675.56;5045407;28;20184;-64
2023/09/24 04:53:48;;;;;;;5.60;3.22;;;;;;;20.86;nan;61790.03;5032114;28;20183;-60
2023/09/24 04:56:14;;;;;;;1.67;1.20;;;;;;;20.84;nan;61715.63;5030747;28;20332;-62
2023/09/24 04:58:39;;;;;;;2.72;1.85;;;;;;;20.67;nan;61691.72;5031787;28;20565;-63
2023/09/24 05:01:05;;;;;;;1.45;1.35;;;;;;;20.83;nan;61682.75;5031983;28;20240;-63
2023/09/24 05:03:32;;;;;;;2.30;1.90;;;;;;;20.65;nan;61670.72;5047543;28;20193;-61
2023/09/24 05:05:58;;;;;;;2.80;1.70;;;;;;;20.52;nan;61659.16;5031683;28;20182;-63
2023/09/24 05:08:23;;;;;;;3.13;2.13;;;;;;;20.38;nan;61645.88;5039249;28;20277;-63
2023/09/24 05:10:49;;;;;;;1.83;1.73;;;;;;;20.28;nan;61696.78;5035048;28;20181;-63
2023/09/24 05:13:15;;;;;;;2.03;1.83;;;;;;;20.33;nan;61624.06;5034039;28;20205;-64
2023/09/24 05:15:40;;;;;;;2.88;1.73;;;;;;;20.40;nan;61624.22;5031323;28;20642;-63
2023/09/24 05:18:06;;;;;;;3.15;2.20;;;;;;;20.64;nan;61679.97;5031654;28;20642;-64
2023/09/24 05:20:32;;;;;;;2.58;1.55;;;;;;;20.73;nan;61744.69;5030865;28;20228;-62
2023/09/24 05:22:57;;;;;;;7.85;2.65;;;;;;;20.89;nan;61765.47;5036142;28;20224;-64
2023/09/24 05:25:22;;;;;;;1.85;1.48;;;;;;;20.88;nan;61689.00;5034094;28;20195;-63
2023/09/24 05:27:48;;;;;;;2.58;1.85;;;;;;;20.91;nan;61707.97;5030654;28;20179;-63
2023/09/24 05:30:13;;;;;;;1.65;1.17;;;;;;;21.16;nan;61741.00;5038380;28;20691;-65
2023/09/24 05:32:39;;;;;;;1.70;1.30;;;;;;;21.23;nan;61873.66;5040402;28;20199;-63
2023/09/24 05:35:05;;;;;;;3.15;1.80;;;;;;;21.19;nan;61728.22;5030854;28;20673;-65
2023/09/24 05:37:30;;;;;;;1.95;1.58;;;;;;;21.50;nan;61760.81;5031756;28;20180;-64
2023/09/24 05:39:56;;;;;;;2.92;1.85;;;;;;;21.43;nan;61901.03;5037578;28;20531;-65
2023/09/24 05:42:22;;;;;;;1.70;1.48;;;;;;;21.67;nan;61829.50;5030621;28;20716;-65
2023/09/24 05:44:47;;;;;;;1.63;1.52;;;;;;;21.93;nan;61848.63;5033598;28;20190;-65
2023/09/24 05:47:13;;;;;;;3.67;2.08;;;;;;;21.81;nan;61803.78;5046889;28;20675;-65
2023/09/24 05:49:38;;;;;;;2.47;1.70;;;;;;;21.92;nan;61972.38;5031137;28;20253;-65
2023/09/24 05:52:03;;;;;;;1.70;1.60;;;;;;;22.01;nan;61779.66;5036748;28;20224;-63
2023/09/24 05:54:29;;;;;;;1.83;1.63;;;;;;;22.43;nan;61915.28;5048372;28;20185;-64
2023/09/24 05:56:54;;;;;;;5.65;2.15;;;;;;;22.62;nan;62165.53;5031953;28;20226;-63
2023/09/24 05:59:20;;;;;;;2.70;1.80;;;;;;;22.86;nan;62009.97;5030788;28;20209;-62
2023/09/24 06:01:46;;;;;;;3.13;2.00;;;;;;;23.01;nan;62081.19;5029840;28;20210;-64
2023/09/24 06:04:11;;;;;;;2.55;1.75;;;;;;;23.01;nan;62036.88;5033267;28;20179;-63
2023/09/24 06:06:37;;;;;;;1.67;1.52;;;;;;;23.34;nan;62079.69;5047110;28;20528;-64
2023/09/24 06:09:08;;;;;;;3.80;2.00;;;;;;;23.46;nan;62192.47;5031640;28;20179;-62
2023/09/24 06:11:35;;;;;;;6.28;2.00;;;;;;;23.63;nan;62091.84;5040096;28;20612;-65
2023/09/24 06:14:03;;;;;;;2.05;1.45;;;;;;;23.82;nan;62128.00;5051735;28;20175;-63
2023/09/24 06:16:29;;;;;;;3.10;1.50;;;;;;;24.01;nan;62280.75;5051456;28;20182;-63
2023/09/24 06:18:54;;;;;;;2.47;1.70;;;;;;;24.20;nan;62207.88;5051317;28;20452;-62
2023/09/24 06:21:19;;;;;;;1.70;1.25;;;;;;;24.31;nan;62215.22;5049853;28;20610;-62
2023/09/24 06:23:45;;;;;;;1.73;1.45;;;;;;;23.88;nan;62137.44;5051444;28;20178;-63
2023/09/24 06:26:10;;;;;;;2.17;1.75;;;;;;;20.88;nan;61755.97;5051102;28;20155;-63
2023/09/24 06:28:36;;;;;;;2.38;1.98;;;;;;;24.38;nan;62230.44;5045077;28;20640;-64
2023/09/24 06:31:03;;;;;;;2.55;1.70;;;;;;;24.21;nan;62146.34;5029914;28;20177;-65
2023/09/24 06:33:29;;;;;;;2.42;1.67;;;;;;;24.36;nan;62155.59;5029947;28;20258;-64
2023/09/24 06:35:55;;;;;;;1.75;1.63;;;;;;;24.33;nan;62157.41;5030817;28;20649;-62
2023/09/24 06:38:20;;;;;;;2.30;1.38;;;;;;;24.61;nan;62144.31;5032300;28;20187;-63
2023/09/24 06:40:46;;;;;;;3.45;2.28;;;;;;;24.67;nan;62355.00;5035820;28;20558;-63
2023/09/24 06:43:11;;;;;;;1.40;1.30;;;;;;;24.75;nan;62287.75;5037105;28;20203;-64
2023/09/24 06:45:37;;;;;;;6.75;1.50;;;;;;;24.37;nan;62289.94;5029930;28;20638;-66
2023/09/24 06:48:03;;;;;;;6.53;2.10;;;;;;;24.37;nan;62201.13;5028772;28;20184;-63
2023/09/24 06:50:28;;;;;;;2.15;1.83;;;;;;;24.37;nan;62195.91;5033743;28;20187;-64
2023/09/24 06:52:54;;;;;;;2.05;1.73;;;;;;;24.57;nan;62210.31;5042780;28;20672;-63
2023/09/24 06:55:19;;;;;;;1.75;1.45;;;;;;;24.33;nan;62285.41;5028141;28;20647;-65
2023/09/24 06:57:46;;;;;;;1.67;1.52;;;;;;;24.40;nan;62190.94;5032831;28;20207;-64
2023/09/24 07:00:12;;;;;;;1.75;1.25;;;;;;;24.90;nan;62221.81;5034320;28;20195;-67
2023/09/24 07:02:38;;;;;;;2.80;1.42;;;;;;;25.00;nan;62303.81;5033332;28;20211;-66
2023/09/24 07:05:07;;;;;;;2.42;1.65;;;;;;;25.22;nan;62275.47;5034207;28;20266;-64
2023/09/24 07:07:32;;;;;;;2.03;1.38;;;;;;;25.11;nan;62315.78;5033113;28;20225;-66
2023/09/24 07:09:59;;;;;;;1.40;1.30;;;;;;;25.36;nan;62328.66;5033399;28;20566;-64
2023/09/24 07:12:25;;;;;;;1.30;1.20;;;;;;;25.60;nan;62342.41;5032931;28;20230;-66
2023/09/24 07:14:51;;;;;;;2.78;1.63;;;;;;;25.69;nan;62486.19;5033670;28;20187;-67
2023/09/24 07:17:16;;;;;;;1.80;1.40;;;;;;;;;;5032550;28;20175;-66
2023/09/24 07:19:42;;;;;;;2.58;1.63;;;;;;;25.35;nan;62348.44;5033948;28;20175;-65
2023/09/24 07:22:07;;;;;;;2.67;1.67;;;;;;;25.20;nan;62330.75;5033152;28;20207;-67
2023/09/24 07:24:33;;;;;;;2.40;1.63;;;;;;;25.25;nan;62433.81;5033200;28;20258;-66
2023/09/24 07:27:02;;;;;;;1.95;1.40;;;;;;;25.11;nan;62271.34;5033165;28;20294;-65
2023/09/24 07:29:29;;;;;;;6.03;2.20;;;;;;;24.94;nan;62388.50;5033489;28;20211;-68
2023/09/24 07:31:54;;;;;;;2.28;1.73;;;;;;;24.76;nan;62354.84;5032822;28;20183;-67
2023/09/24 07:34:20;;;;;;;2.50;1.75;;;;;;;24.92;nan;62373.16;5032677;28;20316;-67
2023/09/24 07:36:45;;;;;;;1.48;1.17;;;;;;;24.77;nan;62248.22;5038368;28;20178;-65
2023/09/24 07:39:11;;;;;;;1.90;1.70;;;;;;;24.75;nan;62209.91;5034693;28;20579;-65
2023/09/24 07:41:37;;;;;;;1.40;1.30;;;;;;;24.65;nan;62232.50;5031429;28;20321;-64
2023/09/24 07:44:02;;;;;;;2.13;1.58;;;;;;;24.72;nan;62255.59;5035019;28;20273;-63
2023/09/24 07:46:30;;;;;;;2.00;1.30;;;;;;;24.54;nan;62282.69;5032468;28;20234;-65
2023/09/24 07:48:55;;;;;;;2.22;1.58;;;;;;;24.68;nan;62258.88;5032717;28;20192;-66
2023/09/24 07:51:22;;;;;;;1.80;1.40;;;;;;;24.84;nan;62337.25;5040405;28;20668;-66
2023/09/24 07:53:48;;;;;;;2.63;1.67;;;;;;;25.03;nan;62529.53;5032170;28;20192;-65
2023/09/24 07:56:13;;;;;;;1.95;1.42;;;;;;;25.30;nan;62308.72;5046357;28;20215;-65
2023/09/24 07:58:40;;;;;;;1.48;1.35;;;;;;;25.32;nan;62399.97;5038630;28;20267;-61
2023/09/24 08:01:09;;;;;;;1.38;1.27;;;;;;;25.26;nan;62434.94;5033456;28;20183;-63
2023/09/24 08:03:35;;;;;;;2.45;1.63;;;;;;;25.37;nan;62314.09;5052589;28;20563;-63
2023/09/24 08:06:02;;;;;;;3.20;1.65;;;;;;;22.84;nan;62049.38;5051938;28;20171;-65
2023/09/24 08:08:28;;;;;;;3.83;1.80;;;;;;;25.61;nan;62298.47;5050773;28;20535;-63
2023/09/24 08:10:56;;;;;;;2.13;1.70;;;;;;;25.25;nan;62303.00;5051663;28;20166;-62
2023/09/24 08:13:23;;;;;;;1.98;1.45;;;;;;;25.38;nan;62440.84;5051722;28;20174;-63
2023/09/24 08:15:49;;;;;;;1.63;1.38;;;;;;;25.57;nan;62388.16;5052308;28;20320;-66
2023/09/24 08:18:16;;;;;;;3.38;1.85;;;;;;;25.53;nan;62371.03;5052918;28;20220;-62
2023/09/24 08:20:42;;;;;;;2.10;1.60;;;;;;;25.68;nan;62379.75;5052883;28;20163;-63
2023/09/24 08:23:09;;;;;;;1.85;1.40;;;;;;;25.84;nan;62392.81;5053284;28;20252;-63
2023/09/24 08:25:34;;;;;;;2.33;1.65;;;;;;;25.93;nan;62539.84;5053612;28;20170;-65
2023/09/24 08:28:00;;;;;;;1.80;1.40;;;;;;;26.40;nan;62476.63;5053473;28;20532;-66
2023/09/24 08:30:32;;;;;;;1.55;1.45;;;;;;;26.49;nan;62536.72;5053364;28;20170;-64
2023/09/24 08:32:58;;;;;;;2.65;1.90;;;;;;;26.35;nan;62560.59;5053443;28;20269;-66
2023/09/24 08:35:24;;;;;;;1.92;1.55;;;;;;;26.29;nan;62470.44;5053433;28;20309;-63
2023/09/24 08:37:50;;;;;;;3.60;2.38;;;;;;;26.19;nan;62445.88;5053578;28;20257;-63
2023/09/24 08:40:16;;;;;;;1.80;1.38;;;;;;;25.84;nan;62304.34;5053607;28;20171;-63
2023/09/24 08:42:45;;;;;;;2.65;1.70;;;;;;;25.74;nan;62392.44;5053002;28;20275;-64
2023/09/24 08:45:13;;;;;;;1.98;1.60;;;;;;;25.64;nan;62354.81;5032877;28;20179;-64
2023/09/24 08:47:39;;;;;;;1.45;1.17;;;;;;;25.84;nan;62528.97;5032229;28;20215;-66
2023/09/24 08:50:08;;;;;;;2.65;1.75;;;;;;;25.99;nan;62385.81;5032565;28;20664;-65
2023/09/24 08:52:35;;;;;;;1.95;1.40;;;;;;;26.26;nan;62414.63;5028885;28;20179;-62
2023/09/24 08:55:05;;;;;;;2.92;1.95;;;;;;;26.58;nan;62492.53;5050356;28;20577;-65
2023/09/24 08:57:31;;;;;;;8.68;1.63;;;;;;;26.66;nan;62540.44;5032561;28;20316;-64
2023/09/24 08:59:56;;;;;;;2.65;1.75;;;;;;;26.67;nan;62542.16;5039141;28;20236;-66
2023/09/24 09:02:21;;;;;;;3.03;1.60;;;;;;;26.90;nan;62541.69;5032090;28;20648;-65
2023/09/24 09:04:50;;;;;;;2.00;1.55;;;;;;;26.67;nan;62649.09;5047677;28;20171;-64
2023/09/24 09:07:16;;;;;;;1.73;1.52;;;;;;;26.54;nan;62571.28;5035552;28;20193;-64
2023/09/24 09:09:54;;;;;;;2.58;1.52;;;;;;;26.77;nan;62490.09;5042440;28;20180;-63
2023/09/24 09:12:20;;;;;;;2.05;1.75;;;;;;;27.11;nan;62573.59;5031884;28;20270;-67
2023/09/24 09:14:46;;;;;;;1.70;1.60;;;;;;;27.06;nan;62554.75;5032771;28;20179;-66
2023/09/24 09:17:11;;;;;;;3.75;1.77;;;;;;;27.19;nan;62870.88;5047195;28;20573;-65
2023/09/24 09:19:51;;;;;;;2.45;1.58;;;;;;;26.99;nan;62575.03;5031139;28;20183;-67
2023/09/24 09:22:22;;;;;;;2.13;1.48;;;;;;;27.45;nan;62743.22;5025799;28;20294;-68
2023/09/24 09:25:09;;;;;;;3.83;2.28;;;;;;;27.17;nan;62711.69;5032248;28;20187;-65
2023/09/24 09:27:43;;;;;;;2.83;1.67;;;;;;;27.23;nan;62608.34;5047979;28;20202;-63
2023/09/24 09:30:15;;;;;;;2.92;1.73;;;;;;;27.43;nan;62691.03;5031831;28;20219;-65
2023/09/24 09:32:45;;;;;;;1.98;1.60;;;;;;;27.36;nan;62666.69;5028819;28;20566;-65
2023/09/24 09:35:11;;;;;;;3.30;1.63;;;;;;;27.39;nan;62706.88;5017623;28;20590;-65
2023/09/24 09:37:39;;;;;;;2.55;1.77;;;;;;;27.98;nan;62703.59;5027850;28;20195;-63
2023/09/24 09:40:06;;;;;;;1.58;1.48;;;;;;;28.22;nan;62840.41;5038489;28;20186;-66
2023/09/24 09:42:33;;;;;;;2.05;1.58;;;;;;;28.72;nan;62811.00;5031123;28;20279;-65
2023/09/24 09:45:09;;;;;;;2.03;1.60;;;;;;;28.52;nan;62753.88;5030602;28;20198;-65
2023/09/24 09:47:49;;;;;;;4.25;1.48;;;;;;;28.30;nan;62808.09;5027060;28;20261;-64
2023/09/24 09:50:21;;;;;;;3.20;1.67;;;;;;;28.33;nan;62826.75;5024718;28;20569;-66
2023/09/24 09:52:48;;;;;;;1.83;1.60;;;;;;;28.51;nan;62863.75;5030056;28;20183;-66
2023/09/24 09:55:14;;;;;;;2.05;1.40;;;;;;;28.72;nan;62826.22;5031230;28;20198;-65
2023/09/24 09:57:41;;;;;;;2.83;1.85;;;;;;;28.58;nan;62797.56;5031075;28;20236;-64
2023/09/24 10:00:10;;;;;;;1.63;1.30;;;;;;;28.50;nan;63032.97;5030615;28;20175;-65
2023/09/24 10:02:39;;;;;;;1.60;1.40;;;;;;;28.57;nan;62798.47;5026907;28;20241;-62
2023/09/24 10:05:07;;;;;;;1.42;1.30;;;;;;;28.76;nan;62822.94;5033844;28;20630;-64
2023/09/24 10:07:40;;;;;;;4.60;1.88;;;;;;;28.77;nan;62829.31;5035430;28;20193;-65
2023/09/24 10:10:30;;;;;;;1.95;1.40;;;;;;;29.30;nan;62982.34;5034166;28;20263;-63
2023/09/24 10:12:56;;;;;;;1.63;1.20;;;;;;;29.32;nan;62926.13;5042793;28;20174;-66
2023/09/24 10:15:29;;;;;;;1.77;1.40;;;;;;;29.51;nan;62979.00;5036447;28;20624;-64
2023/09/24 10:18:07;;;;;;;2.08;1.88;;;;;;;29.74;nan;63029.16;5031799;28;20186;-66
2023/09/24 10:20:51;;;;;;;2.30;1.67;;;;;;;29.98;nan;63059.41;5046376;28;20169;-65
2023/09/24 10:23:28;;;;;;;3.13;1.73;;;;;;;29.84;nan;63067.59;5031368;28;20199;-63
2023/09/24 10:25:56;;;;;;;3.17;2.05;;;;;;;29.35;nan;62876.91;5030205;28;20570;-64
2023/09/24 10:28:48;;;;;;;2.10;1.60;;;;;;;28.95;nan;62913.72;5029247;28;20550;-65
2023/09/24 10:31:16;;;;;;;3.40;1.40;;;;;;;28.77;nan;62848.31;5018960;28;20183;-64
2023/09/24 10:33:51;;;;;;;1.50;1.27;;;;;;;28.43;nan;62790.88;5042589;28;20174;-65
2023/09/24 10:36:33;;;;;;;1.80;1.58;;;;;;;28.47;nan;62792.84;5039613;28;20583;-65
2023/09/24 10:39:13;;;;;;;2.33;1.65;;;;;;;28.55;nan;62847.31;5047036;28;20175;-65
2023/09/24 10:42:10;;;;;;;1.88;1.50;;;;;;;28.82;nan;62908.75;5035026;28;20202;-67
2023/09/24 10:44:36;;;;;;;2.92;1.70;;;;;;;28.42;nan;62747.66;5031519;28;20221;-62
2023/09/24 10:47:25;;;;;;;2.22;1.70;;;;;;;28.68;nan;62895.84;5033585;28;20194;-65
2023/09/24 10:49:50;;;;;;;3.08;1.60;;;;;;;28.62;nan;62820.56;5032566;28;20270;-66
2023/09/24 10:52:16;;;;;;;2.53;1.60;;;;;;;28.80;nan;63041.25;5034441;28;20186;-65
2023/09/24 10:54:46;;;;;;;9.18;1.63;;;;;;;28.81;nan;62792.38;5034461;28;20183;-65
2023/09/24 10:57:23;;;;;;;1.63;1.20;;;;;;;29.19;nan;62887.47;5033515;28;20231;-64
2023/09/24 10:59:48;;;;;;;2.75;1.67;;;;;;;29.17;nan;62990.53;5031844;28;20178;-64
2023/09/24 11:02:18;;;;;;;1.75;1.20;;;;;;;29.36;nan;63012.94;5034371;28;20260;-63
2023/09/24 11:04:43;;;;;;;2.05;1.23;;;;;;;29.62;nan;62984.31;5032577;28;20178;-64
2023/09/24 11:07:10;;;;;;;2.35;1.45;;;;;;;29.56;nan;62932.63;5034069;28;20642;-65
2023/09/24 11:09:35;;;;;;;2.75;1.98;;;;;;;29.80;nan;63084.09;5033602;28;20187;-65
2023/09/24 11:12:07;;;;;;;5.47;1.88;;;;;;;29.80;nan;62952.28;5041120;28;20194;-67
2023/09/24 11:14:32;;;;;;;2.90;1.48;;;;;;;29.75;nan;62959.72;5034039;28;20677;-65
2023/09/24 11:16:58;;;;;;;2.67;1.63;;;;;;;30.05;nan;63069.53;5043947;28;20174;-66
2023/09/24 11:19:46;;;;;;;1.55;1.20;;;;;;;30.09;nan;63084.69;5039999;28;20553;-63
2023/09/24 11:22:25;;;;;;;2.00;1.45;;;;;;;29.98;nan;63021.94;5049181;28;20233;-64
2023/09/24 11:25:12;;;;;;;1.90;1.40;;;;;;;30.27;nan;63134.41;5032782;28;20175;-63
2023/09/24 11:28:04;;;;;;;2.45;1.73;;;;;;;30.28;nan;63115.06;5046280;28;20186;-63
2023/09/24 11:30:50;;;;;;;2.35;1.30;;;;;;;29.83;nan;62955.75;5030317;28;20400;-66
2023/09/24 11:33:18;;;;;;;2.22;1.40;;;;;;;29.69;nan;62825.78;5032223;28;20665;-63
2023/09/24 11:35:44;;;;;;;2.22;1.50;;;;;;;29.84;nan;62993.22;5033551;28;20178;-67
2023/09/24 11:38:11;;;;;;;1.77;1.30;;;;;;;29.71;nan;62931.41;5033063;28;20659;-64
2023/09/24 11:40:38;;;;;;;2.20;1.60;;;;;;;29.77;nan;62948.84;5033633;28;20185;-65
2023/09/24 11:43:12;;;;;;;2.65;1.60;;;;;;;29.78;nan;62984.25;5032087;28;20201;-65
2023/09/24 11:45:50;;;;;;;1.45;1.35;;;;;;;29.68;nan;62988.59;5040179;28;20227;-64
2023/09/24 11:48:20;;;;;;;2.25;1.50;;;;;;;29.60;nan;63018.31;5031617;28;20312;-65
2023/09/24 11:50:48;;;;;;;2.05;1.38;;;;;;;29.13;nan;62896.41;5032159;28;20534;-65
2023/09/24 11:53:14;;;;;;;1.50;1.35;;;;;;;28.77;nan;62756.22;5031677;28;20191;-65
2023/09/24 11:55:43;;;;;;;2.58;1.73;;;;;;;28.89;nan;62835.78;5032458;28;20230;-65
2023/09/24 11:58:11;;;;;;;2.90;1.80;;;;;;;28.66;nan;62930.41;5040355;28;20638;-65
2023/09/24 12:00:38;;;;;;;2.20;1.60;;;;;;;28.74;nan;62915.34;5033151;28;20195;-65
2023/09/24 12:03:04;;;;;;;2.88;2.30;;;;;;;28.57;nan;62703.78;5040363;28;20221;-64